KLPR

Lorain County Regional Airport

Lorain/Elyria, Ohio, USA
METAR KLPR 170208Z AUTO 08003KT 1 3/4SM BR CLR M03/M05 A3011 RMK AO2 T10331050
Observed Flight Rules
Dec-17 @ 02:08 UTC (20 minutes ago) Instrument Flight Rules
Wind Visibility Clouds Conditions
80° at 3 knots 1 3/4 miles
  • Clear skies
  • Mist
Temperatures Readings
Current -3°C / 27°F
Dewpoint -5°C / 23°F
Humidity 86%
Altimeter 30.11" Hg
Pressure 1020 hPa
Elevation 241
METAR KLPR 170208Z AUTO 08003KT 1 3/4SM BR CLR M03/M05 A3011 RMK AO2 T10331050
Observed Flight Rules
Dec-17 @ 02:08 UTC
(20 minutes ago)
IFR
Wind Visibility
80° at 3 knots 1 3/4 miles
Clouds
  • Clear skies
Conditions
  • Mist
Temperature Dewpoint
-3°C / 27°F -5°C / 23°F
Humidity Altimeter Pressure
86% 30.11" Hg 1020 hPa